Terminal Aerodrome Forecast
Issued by NWS

Home | Current Version | Previous Version | Text Only | Print | Product List | Glossary On
Versions: 1 2 3 4 5 6 7 8 9 10 11 12
000
FTUS46 KSGX 312320
TAFTRM
TAF
KTRM 312320Z 0100/0124 14009KT P6SM SKC
     FM010200 33011KT P6SM SKC
     FM011000 VRB06KT P6SM SKC
     FM012000 14009KT P6SM SKC=

USA.gov is the U.S. government's official web portal to all federal, state and local government web resources and services.